createdAt,value
2019-01-24T00:01:28.310Z,21.03
2019-01-24T00:03:59.570Z,19.47
2019-01-24T00:06:28.600Z,22.03
2019-01-24T00:09:00.934Z,22.23
2019-01-24T00:11:32.158Z,22.00
2019-01-24T00:14:00.685Z,20.67
2019-01-24T00:16:34.600Z,21.03
2019-01-24T00:19:05.917Z,20.53
2019-01-24T00:21:36.001Z,20.33
2019-01-24T00:24:10.412Z,20.60
2019-01-24T00:26:40.436Z,20.17
2019-01-24T00:29:11.497Z,20.47
2019-01-24T00:31:39.885Z,22.10
2019-01-24T00:34:23.388Z,19.47
2019-01-24T00:36:56.788Z,19.73
2019-01-24T00:39:31.017Z,21.00
2019-01-24T00:41:59.411Z,21.77
2019-01-24T00:44:29.449Z,21.30
2019-01-24T00:47:00.625Z,20.67
2019-01-24T00:49:29.008Z,21.40
2019-01-24T00:51:57.438Z,22.03
2019-01-24T00:54:25.818Z,21.07
2019-01-24T00:56:54.216Z,22.80
2019-01-24T00:59:22.857Z,24.03
2019-01-24T01:01:54.168Z,24.47
2019-01-24T01:04:29.682Z,24.40
2019-01-24T01:06:55.708Z,24.33
2019-01-24T01:09:25.739Z,24.73
2019-01-24T01:11:56.931Z,25.57
2019-01-24T01:14:30.885Z,24.87
2019-01-24T01:17:05.276Z,23.57
2019-01-24T01:19:44.084Z,25.83
2019-01-24T01:22:14.045Z,25.87
2019-01-24T01:24:42.424Z,25.07
2019-01-24T01:27:13.564Z,26.37
2019-01-24T01:29:44.979Z,26.73
2019-01-24T01:32:13.396Z,25.30
2019-01-24T01:34:41.793Z,27.63
2019-01-24T01:37:15.540Z,26.27
2019-01-24T01:39:43.947Z,26.03
2019-01-24T01:42:12.336Z,26.07
2019-01-24T01:44:45.439Z,26.47
2019-01-24T01:47:13.901Z,26.47
2019-01-24T01:49:42.470Z,26.70
2019-01-24T01:52:19.643Z,26.50
2019-01-24T01:54:48.045Z,26.37
2019-01-24T01:57:16.440Z,25.40
2019-01-24T01:59:46.461Z,26.43
2019-01-24T02:02:17.565Z,26.40
2019-01-24T02:04:57.882Z,27.83
2019-01-24T02:07:26.269Z,27.67
2019-01-24T02:09:57.959Z,26.27
2019-01-24T02:12:26.829Z,27.57
2019-01-24T02:14:55.227Z,27.43
2019-01-24T02:17:29.701Z,28.37
2019-01-24T02:19:58.369Z,27.70
2019-01-24T02:22:29.901Z,25.73
2019-01-24T02:25:05.439Z,26.73
2019-01-24T02:27:36.505Z,26.27
2019-01-24T02:30:11.895Z,26.37
2019-01-24T02:32:43.297Z,26.23
2019-01-24T02:35:11.684Z,27.40
2019-01-24T02:37:40.087Z,26.30
2019-01-24T02:40:10.320Z,26.87
2019-01-24T02:42:38.710Z,29.90
2019-01-24T02:45:11.829Z,28.00
2019-01-24T02:47:45.279Z,27.60
2019-01-24T02:50:40.286Z,26.43
2019-01-24T02:53:11.357Z,27.27
2019-01-24T02:55:39.753Z,25.73
2019-01-24T02:58:11.083Z,26.67
2019-01-24T03:00:39.486Z,28.77
2019-01-24T03:03:10.798Z,27.87
2019-01-24T03:05:41.085Z,27.63
2019-01-24T03:08:09.735Z,27.93
2019-01-24T03:10:38.361Z,27.63
2019-01-24T03:13:09.980Z,27.17
2019-01-24T03:15:38.364Z,26.70
2019-01-24T03:18:07.826Z,26.70
2019-01-24T03:20:39.384Z,28.10
2019-01-24T03:23:10.446Z,27.47
2019-01-24T03:25:41.563Z,27.97
2019-01-24T03:28:14.717Z,27.20
2019-01-24T03:30:50.484Z,24.20
2019-01-24T03:33:19.110Z,25.87
2019-01-24T03:35:47.502Z,27.07
2019-01-24T03:38:18.577Z,28.70
2019-01-24T03:40:47.161Z,27.40
2019-01-24T03:43:15.665Z,26.60
2019-01-24T03:45:44.054Z,25.63
2019-01-24T03:48:12.458Z,27.67
2019-01-24T03:50:40.858Z,28.80
2019-01-24T03:53:12.146Z,26.43
2019-01-24T03:55:46.687Z,27.00
2019-01-24T03:58:17.970Z,28.47
2019-01-24T04:00:46.353Z,26.97
2019-01-24T04:03:16.397Z,26.63
2019-01-24T04:05:45.460Z,27.97
2019-01-24T04:08:16.873Z,28.77
2019-01-24T04:10:49.817Z,28.47
2019-01-24T04:13:18.494Z,29.23
2019-01-24T04:15:49.789Z,28.90
2019-01-24T04:18:18.166Z,29.77
2019-01-24T04:20:47.052Z,28.30
2019-01-24T04:23:15.470Z,29.03
2019-01-24T04:25:43.901Z,30.20
2019-01-24T04:28:12.298Z,30.37
2019-01-24T04:30:46.301Z,30.30
2019-01-24T04:33:20.963Z,30.13
2019-01-24T04:35:51.004Z,29.07
2019-01-24T04:38:19.413Z,29.90
2019-01-24T04:40:47.813Z,28.97
2019-01-24T04:43:16.203Z,30.03
2019-01-24T04:45:48.931Z,29.70
2019-01-24T04:48:17.328Z,30.03
2019-01-24T04:50:45.721Z,31.63
2019-01-24T04:53:14.107Z,30.03
2019-01-24T04:55:45.176Z,29.93
2019-01-24T04:58:16.664Z,31.03
2019-01-24T05:00:45.108Z,30.63
2019-01-24T05:03:13.785Z,31.40
2019-01-24T05:05:51.080Z,32.27
2019-01-24T05:08:19.472Z,32.47
2019-01-24T05:10:47.856Z,32.20
2019-01-24T05:13:16.264Z,32.97
2019-01-24T05:15:46.298Z,32.50
2019-01-24T05:18:17.512Z,31.73
2019-01-24T05:20:49.176Z,32.90
2019-01-24T05:23:19.213Z,32.13
2019-01-24T05:25:50.299Z,33.00
2019-01-24T05:28:18.706Z,31.90
2019-01-24T05:30:48.733Z,32.83
2019-01-24T05:33:25.353Z,30.73
2019-01-24T05:35:59.426Z,31.33
2019-01-24T05:38:39.798Z,33.17
2019-01-24T05:41:10.081Z,33.30
2019-01-24T05:43:38.481Z,31.47
2019-01-24T05:46:09.311Z,32.03
2019-01-24T05:48:37.958Z,32.70
2019-01-24T05:51:09.176Z,32.67
2019-01-24T05:53:44.632Z,30.23
2019-01-24T05:56:15.637Z,31.83
2019-01-24T05:58:49.848Z,32.07
2019-01-24T06:01:18.512Z,31.10
2019-01-24T06:03:48.233Z,31.70
2019-01-24T06:06:16.577Z,33.53
2019-01-24T06:08:51.267Z,33.03
2019-01-24T06:11:21.296Z,32.57
2019-01-24T06:13:49.701Z,32.27
2019-01-24T06:16:18.089Z,30.80
2019-01-24T06:18:46.564Z,31.53
2019-01-24T06:21:15.051Z,33.00
2019-01-24T06:23:48.037Z,31.33
2019-01-24T06:26:19.225Z,31.57
2019-01-24T06:28:47.612Z,31.93
2019-01-24T06:31:16.032Z,32.33
2019-01-24T06:33:44.445Z,32.77
2019-01-24T06:36:12.837Z,32.17
2019-01-24T06:38:41.643Z,37.93
2019-01-24T06:41:10.170Z,36.13
2019-01-24T06:43:38.569Z,35.97
2019-01-24T06:46:10.336Z,32.83
2019-01-24T06:48:41.797Z,31.87
2019-01-24T06:51:13.157Z,33.40
2019-01-24T06:53:47.140Z,32.47
2019-01-24T06:56:18.581Z,38.40
2019-01-24T06:58:46.985Z,29.73
2019-01-24T07:01:15.369Z,30.00
2019-01-24T07:03:44.738Z,31.50
2019-01-24T07:06:13.142Z,31.40
2019-01-24T07:08:41.541Z,29.80
2019-01-24T07:11:12.850Z,29.30
2019-01-24T07:13:41.253Z,29.20
2019-01-24T07:16:09.639Z,29.57
2019-01-24T07:18:39.678Z,30.53
2019-01-24T07:21:08.069Z,28.57
2019-01-24T07:23:39.436Z,30.27
2019-01-24T07:26:07.821Z,30.40
2019-01-24T07:28:36.246Z,30.30
2019-01-24T07:31:04.645Z,29.37
2019-01-24T07:33:33.276Z,29.57
2019-01-24T07:36:02.301Z,30.37
2019-01-24T07:38:31.445Z,29.63
2019-01-24T07:41:02.682Z,30.53
2019-01-24T07:43:35.103Z,29.47
2019-01-24T07:46:06.222Z,29.40
2019-01-24T07:48:37.425Z,29.03
2019-01-24T07:51:05.837Z,30.03
2019-01-24T07:53:38.510Z,32.67
2019-01-24T07:56:05.297Z,30.73
2019-01-24T07:58:36.670Z,31.53
2019-01-24T08:01:14.004Z,28.77
2019-01-24T08:03:42.569Z,28.67
2019-01-24T08:06:11.212Z,29.90
2019-01-24T08:08:41.256Z,30.57
2019-01-24T08:11:09.643Z,29.20
2019-01-24T08:13:40.958Z,31.07
2019-01-24T08:16:09.353Z,30.93
2019-01-24T08:18:37.989Z,29.97
2019-01-24T08:21:06.639Z,31.83
2019-01-24T08:23:35.096Z,31.87
2019-01-24T08:26:03.510Z,33.30
2019-01-24T08:28:34.617Z,32.03
2019-01-24T08:31:03.320Z,31.73
2019-01-24T08:33:31.717Z,31.27
2019-01-24T08:36:03.143Z,32.13
2019-01-24T08:38:31.769Z,34.20
2019-01-24T08:41:00.160Z,33.50
2019-01-24T08:43:28.577Z,32.93
2019-01-24T08:45:57.218Z,31.93
2019-01-24T08:48:28.724Z,31.77
2019-01-24T08:50:57.113Z,32.53
2019-01-24T08:53:30.706Z,31.37
2019-01-24T08:56:00.734Z,32.13
2019-01-24T08:58:29.125Z,31.43
2019-01-24T09:00:57.593Z,31.83
2019-01-24T09:03:31.673Z,31.27
2019-01-24T09:06:00.063Z,31.30
2019-01-24T09:08:33.278Z,32.00
2019-01-24T09:11:01.918Z,31.03
2019-01-24T09:13:31.218Z,30.40
2019-01-24T09:16:11.856Z,30.47
2019-01-24T09:18:46.430Z,33.43
2019-01-24T09:21:14.838Z,31.37
2019-01-24T09:23:48.983Z,30.47
2019-01-24T09:26:17.645Z,31.43
2019-01-24T09:28:46.028Z,31.43
2019-01-24T09:31:14.425Z,31.60
2019-01-24T09:33:45.579Z,31.47
2019-01-24T09:36:15.524Z,32.10
2019-01-24T09:38:49.661Z,32.37
2019-01-24T09:41:18.067Z,31.47
2019-01-24T09:43:52.462Z,31.40
2019-01-24T09:46:20.896Z,31.73
2019-01-24T09:48:49.283Z,31.37
2019-01-24T09:51:19.027Z,30.07
2019-01-24T09:53:53.376Z,32.00
2019-01-24T09:56:33.670Z,31.13
2019-01-24T09:59:02.390Z,29.93
2019-01-24T10:01:33.963Z,29.37
2019-01-24T10:04:06.709Z,31.27
2019-01-24T10:06:36.332Z,29.67
2019-01-24T10:09:09.409Z,28.83
2019-01-24T10:11:40.258Z,29.07
2019-01-24T10:14:10.570Z,29.87
2019-01-24T10:16:38.973Z,29.00
2019-01-24T10:19:07.609Z,28.23
2019-01-24T10:21:36.011Z,28.13
2019-01-24T10:24:05.357Z,28.63
2019-01-24T10:26:33.757Z,29.60
2019-01-24T10:29:02.184Z,30.43
2019-01-24T10:31:30.561Z,30.30
2019-01-24T10:33:59.217Z,29.10
2019-01-24T10:36:27.626Z,30.77
2019-01-24T10:38:56.020Z,30.37
2019-01-24T10:41:24.421Z,29.13
2019-01-24T10:43:52.850Z,29.33
2019-01-24T10:46:21.239Z,31.30
2019-01-24T10:48:49.711Z,30.20
2019-01-24T10:51:18.112Z,29.43
2019-01-24T10:53:46.521Z,31.13
2019-01-24T10:56:14.905Z,28.80
2019-01-24T10:58:43.325Z,31.17
2019-01-24T11:01:17.881Z,30.37
2019-01-24T11:03:46.265Z,29.07
2019-01-24T11:06:14.897Z,30.80
2019-01-24T11:08:44.785Z,28.37
2019-01-24T11:11:20.439Z,29.90
2019-01-24T11:13:49.285Z,28.47
2019-01-24T11:16:17.693Z,28.40
2019-01-24T11:18:49.789Z,29.40
2019-01-24T11:21:18.138Z,30.50
2019-01-24T11:23:46.845Z,29.83
2019-01-24T11:26:15.476Z,29.30
2019-01-24T11:28:43.890Z,29.43
2019-01-24T11:31:12.289Z,30.20
2019-01-24T11:33:40.674Z,29.60
2019-01-24T11:36:12.361Z,29.83
2019-01-24T11:38:42.398Z,30.43
2019-01-24T11:41:10.792Z,31.00
2019-01-24T11:43:39.426Z,28.77
2019-01-24T11:46:10.676Z,28.83
2019-01-24T11:48:45.105Z,30.27
2019-01-24T11:51:19.728Z,29.50
2019-01-24T11:53:53.076Z,30.27
2019-01-24T11:56:21.421Z,28.13
2019-01-24T11:58:49.838Z,29.43
2019-01-24T12:01:20.877Z,28.83
2019-01-24T12:03:51.921Z,29.30
2019-01-24T12:06:20.309Z,30.37
2019-01-24T12:08:51.627Z,28.83
2019-01-24T12:11:20.021Z,28.90
2019-01-24T12:13:51.118Z,29.50
2019-01-24T12:16:19.514Z,28.87
2019-01-24T12:18:48.133Z,28.33
2019-01-24T12:21:18.066Z,27.10
2019-01-24T12:23:55.341Z,29.23
2019-01-24T12:26:25.379Z,27.50
2019-01-24T12:28:58.365Z,27.27
2019-01-24T12:31:28.137Z,28.17
2019-01-24T12:33:58.172Z,28.80
2019-01-24T12:36:32.237Z,30.17
2019-01-24T12:39:05.093Z,27.77
2019-01-24T12:41:33.477Z,28.47
2019-01-24T12:44:01.952Z,29.20
2019-01-24T12:46:31.976Z,30.87
2019-01-24T12:49:04.703Z,30.60
2019-01-24T12:51:38.736Z,29.20
2019-01-24T12:54:07.125Z,30.27
2019-01-24T12:56:38.701Z,29.77
2019-01-24T12:59:10.077Z,30.43
2019-01-24T13:01:41.386Z,30.17
2019-01-24T13:04:14.806Z,28.10
2019-01-24T13:06:55.805Z,29.63
2019-01-24T13:09:25.837Z,30.57
2019-01-24T13:11:57.125Z,29.73
2019-01-24T13:14:25.518Z,30.47
2019-01-24T13:16:58.480Z,29.63
2019-01-24T13:19:28.814Z,28.70
2019-01-24T13:21:59.094Z,27.80
2019-01-24T13:24:33.437Z,29.90
2019-01-24T13:27:02.099Z,29.60
2019-01-24T13:29:37.325Z,28.93
2019-01-24T13:32:08.344Z,29.23
2019-01-24T13:34:36.741Z,29.90
2019-01-24T13:37:09.113Z,28.07
2019-01-24T13:39:37.713Z,27.90
2019-01-24T13:42:06.765Z,28.70
2019-01-24T13:44:35.174Z,29.63
2019-01-24T13:47:10.967Z,28.60
2019-01-24T13:49:36.646Z,29.23
2019-01-24T13:52:05.865Z,29.73
2019-01-24T13:54:37.425Z,30.33
2019-01-24T13:57:07.454Z,29.27
2019-01-24T13:59:38.574Z,29.53
2019-01-24T14:02:07.034Z,29.13
2019-01-24T14:04:42.461Z,21.67
2019-01-24T14:07:12.857Z,22.13
2019-01-24T14:09:41.252Z,20.83
2019-01-24T14:12:09.645Z,19.40
2019-01-24T14:14:41.040Z,20.97
2019-01-24T14:17:10.750Z,20.80
2019-01-24T14:19:39.188Z,21.83
2019-01-24T14:22:08.480Z,22.63
2019-01-24T14:24:39.898Z,23.17
2019-01-24T14:27:08.333Z,23.10
2019-01-24T14:29:39.504Z,20.90
2019-01-24T14:32:08.758Z,22.63
2019-01-24T14:34:39.638Z,23.03
2019-01-24T14:37:10.205Z,21.90
2019-01-24T14:39:38.614Z,22.37
2019-01-24T14:42:06.994Z,23.47
2019-01-24T14:44:39.992Z,22.53
2019-01-24T14:47:08.615Z,22.87
2019-01-24T14:49:37.017Z,23.57
2019-01-24T14:52:08.220Z,22.93
2019-01-24T14:54:43.845Z,24.53
2019-01-24T14:57:12.213Z,23.47
2019-01-24T14:59:40.604Z,24.03
2019-01-24T15:02:09.669Z,21.87
2019-01-24T15:04:41.528Z,24.90
2019-01-24T15:07:12.616Z,22.93
2019-01-24T15:09:43.879Z,23.33
2019-01-24T15:12:12.291Z,24.40
2019-01-24T15:14:43.365Z,23.43
2019-01-24T15:17:13.297Z,23.07
2019-01-24T15:19:42.684Z,21.47
2019-01-24T15:22:11.314Z,24.03
2019-01-24T15:24:41.340Z,21.77
2019-01-24T15:27:16.953Z,22.23
2019-01-24T15:29:48.081Z,21.70
2019-01-24T15:32:22.341Z,21.10
2019-01-24T15:34:56.696Z,21.27
2019-01-24T15:37:25.481Z,22.20
2019-01-24T15:39:59.725Z,21.87
2019-01-24T15:42:28.121Z,21.77
2019-01-24T15:44:58.165Z,21.30
2019-01-24T15:47:26.558Z,23.77
2019-01-24T15:49:58.919Z,24.10
2019-01-24T15:52:34.047Z,24.13
2019-01-24T15:55:00.095Z,22.60
2019-01-24T15:57:30.691Z,23.80
2019-01-24T15:59:59.109Z,22.80
2019-01-24T16:02:27.510Z,25.50
2019-01-24T16:04:57.289Z,28.93
2019-01-24T16:07:25.681Z,25.63
2019-01-24T16:09:54.069Z,25.33
2019-01-24T16:12:22.838Z,25.23
2019-01-24T16:14:51.229Z,24.67
2019-01-24T16:17:22.513Z,24.83
2019-01-24T16:19:50.920Z,24.77
2019-01-24T16:22:22.209Z,25.30
2019-01-24T16:24:50.602Z,25.30
2019-01-24T16:27:19.065Z,24.53
2019-01-24T16:29:47.525Z,22.00
2019-01-24T16:32:18.657Z,21.90
2019-01-24T16:34:52.783Z,23.77
2019-01-24T16:37:21.413Z,25.27
2019-01-24T16:39:50.051Z,25.13
2019-01-24T16:42:20.125Z,24.07
2019-01-24T16:44:51.813Z,24.80
2019-01-24T16:47:20.213Z,26.43
2019-01-24T16:49:48.602Z,23.93
2019-01-24T16:52:19.969Z,24.50
2019-01-24T16:54:51.287Z,23.37
2019-01-24T16:57:19.933Z,23.20
2019-01-24T16:59:51.500Z,23.27
2019-01-24T17:02:23.317Z,26.93
2019-01-24T17:04:52.054Z,23.00
2019-01-24T17:07:20.444Z,22.23
2019-01-24T17:09:48.862Z,21.20
2019-01-24T17:12:20.697Z,22.07
2019-01-24T17:14:49.666Z,21.43
2019-01-24T17:17:20.815Z,20.77
2019-01-24T17:19:49.831Z,19.50
2019-01-24T17:22:23.270Z,20.90
2019-01-24T17:24:53.201Z,21.03
2019-01-24T17:27:21.600Z,20.33
2019-01-24T17:29:50.023Z,20.20
2019-01-24T17:32:20.181Z,19.60
2019-01-24T17:34:49.228Z,21.43
2019-01-24T17:37:17.637Z,21.27
2019-01-24T17:39:49.037Z,20.40
2019-01-24T17:42:18.030Z,29.50
2019-01-24T17:44:46.423Z,30.03
2019-01-24T17:47:17.977Z,23.67
2019-01-24T17:49:46.385Z,21.83
2019-01-24T17:52:14.801Z,22.30
2019-01-24T17:54:43.193Z,20.10
2019-01-24T17:57:14.657Z,21.43
2019-01-24T17:59:44.943Z,20.83
2019-01-24T18:02:13.577Z,21.20
2019-01-24T18:04:42.013Z,21.03
2019-01-24T18:07:10.645Z,21.80
2019-01-24T18:09:39.058Z,20.40
2019-01-24T18:12:10.377Z,20.53
2019-01-24T18:14:38.764Z,20.87
2019-01-24T18:17:08.128Z,21.60
2019-01-24T18:19:36.550Z,22.83
2019-01-24T18:22:05.973Z,20.67
2019-01-24T18:24:36.006Z,22.80
2019-01-24T18:27:04.547Z,20.73
2019-01-24T18:29:32.956Z,22.70
2019-01-24T18:32:04.581Z,22.23
2019-01-24T18:34:34.457Z,21.53
2019-01-24T18:37:05.894Z,20.67
2019-01-24T18:39:34.541Z,19.83
2019-01-24T18:42:05.879Z,21.77
2019-01-24T18:44:35.953Z,20.90
2019-01-24T18:47:13.300Z,21.10
2019-01-24T18:49:43.668Z,22.70
2019-01-24T18:52:13.573Z,24.07
2019-01-24T18:54:41.984Z,22.43
2019-01-24T18:57:10.885Z,21.67
2019-01-24T18:59:39.598Z,23.30
2019-01-24T19:02:08.242Z,23.83
2019-01-24T19:04:38.416Z,22.70
2019-01-24T19:07:11.919Z,23.03
2019-01-24T19:09:44.779Z,23.53
2019-01-24T19:12:13.178Z,24.27
2019-01-24T19:14:47.621Z,23.97
2019-01-24T19:17:16.242Z,23.97
2019-01-24T19:19:44.645Z,23.17
2019-01-24T19:22:13.035Z,23.37
2019-01-24T19:24:42.672Z,26.00
2019-01-24T19:27:12.381Z,24.20
2019-01-24T19:29:40.732Z,24.07
2019-01-24T19:32:09.540Z,24.13
2019-01-24T19:34:46.861Z,24.23
2019-01-24T19:37:17.725Z,22.80
2019-01-24T19:39:53.460Z,22.00
2019-01-24T19:42:26.238Z,24.07
2019-01-24T19:44:57.542Z,23.80
2019-01-24T19:47:31.469Z,23.03
2019-01-24T19:49:59.914Z,21.63
2019-01-24T19:52:31.689Z,22.30
2019-01-24T19:55:03.001Z,23.67
2019-01-24T19:57:38.781Z,22.60
2019-01-24T20:00:17.303Z,23.83
2019-01-24T20:02:45.688Z,21.63
2019-01-24T20:05:17.237Z,24.20
2019-01-24T20:07:45.941Z,24.47
2019-01-24T20:10:20.352Z,24.63
2019-01-24T20:12:49.732Z,26.60
2019-01-24T20:15:23.373Z,24.27
2019-01-24T20:17:53.631Z,25.73
2019-01-24T20:20:27.762Z,24.93
2019-01-24T20:22:59.021Z,23.77
2019-01-24T20:25:30.488Z,25.60
2019-01-24T20:28:05.384Z,25.97
2019-01-24T20:30:35.072Z,24.53
2019-01-24T20:33:04.223Z,25.50
2019-01-24T20:35:35.760Z,24.93
2019-01-24T20:38:05.298Z,25.40
2019-01-24T20:40:33.688Z,25.03
2019-01-24T20:43:02.346Z,26.40
2019-01-24T20:45:32.377Z,27.00
2019-01-24T20:48:00.781Z,26.90
2019-01-24T20:50:31.939Z,25.87
2019-01-24T20:53:00.327Z,27.30
2019-01-24T20:55:34.583Z,26.77
2019-01-24T20:58:03.842Z,28.00
2019-01-24T21:00:34.555Z,25.77
2019-01-24T21:03:05.586Z,29.57
2019-01-24T21:05:42.632Z,26.70
2019-01-24T21:08:13.038Z,26.33
2019-01-24T21:10:41.661Z,28.57
2019-01-24T21:13:13.309Z,26.20
2019-01-24T21:15:41.697Z,27.73
2019-01-24T21:18:10.314Z,26.40
2019-01-24T21:20:38.704Z,25.83
2019-01-24T21:23:07.108Z,28.73
2019-01-24T21:25:37.393Z,27.43
2019-01-24T21:28:08.161Z,27.00
2019-01-24T21:30:42.946Z,27.53
2019-01-24T21:33:09.289Z,27.60
2019-01-24T21:35:38.389Z,28.63
2019-01-24T21:38:08.236Z,28.87
2019-01-24T21:40:36.837Z,25.47
2019-01-24T21:43:08.721Z,29.47
2019-01-24T21:45:38.394Z,29.57
2019-01-24T21:48:08.456Z,29.20
2019-01-24T21:50:43.088Z,27.37
2019-01-24T21:53:11.478Z,26.53
2019-01-24T21:55:40.535Z,26.33
2019-01-24T21:58:11.591Z,27.70
2019-01-24T22:00:41.406Z,27.00
2019-01-24T22:03:10.078Z,28.03
2019-01-24T22:05:38.579Z,27.93
2019-01-24T22:08:09.334Z,30.47
2019-01-24T22:10:37.721Z,26.93
2019-01-24T22:13:07.604Z,28.03
2019-01-24T22:15:36.761Z,27.33
2019-01-24T22:18:08.592Z,27.03
2019-01-24T22:20:37.311Z,27.70
2019-01-24T22:23:06.440Z,29.50
2019-01-24T22:25:42.541Z,27.97
2019-01-24T22:28:12.875Z,29.27
2019-01-24T22:30:44.232Z,29.03
2019-01-24T22:33:12.644Z,27.30
2019-01-24T22:35:43.597Z,29.17
2019-01-24T22:38:13.689Z,29.20
2019-01-24T22:40:47.691Z,28.43
2019-01-24T22:43:20.700Z,29.17
2019-01-24T22:45:50.745Z,29.47
2019-01-24T22:48:24.954Z,30.17
2019-01-24T22:50:56.171Z,30.83
2019-01-24T22:53:25.405Z,31.33
2019-01-24T22:56:00.146Z,30.17
2019-01-24T22:58:37.213Z,28.40
2019-01-24T23:01:32.819Z,30.20
2019-01-24T23:04:03.044Z,28.10
2019-01-24T23:06:41.471Z,29.90
2019-01-24T23:09:12.202Z,30.20
2019-01-24T23:11:52.861Z,29.47
2019-01-24T23:14:21.260Z,28.27
2019-01-24T23:16:51.019Z,29.70
2019-01-24T23:19:21.465Z,29.17
2019-01-24T23:21:49.859Z,29.47
2019-01-24T23:24:30.138Z,30.47
2019-01-24T23:27:01.252Z,30.73
2019-01-24T23:29:32.593Z,30.77
2019-01-24T23:32:04.768Z,30.37
2019-01-24T23:34:33.153Z,30.50
2019-01-24T23:37:24.825Z,30.77
2019-01-24T23:40:04.905Z,29.77
2019-01-24T23:42:33.569Z,29.47
2019-01-24T23:45:08.189Z,31.80
2019-01-24T23:47:42.767Z,30.17
2019-01-24T23:50:11.221Z,30.60
2019-01-24T23:52:45.606Z,29.33
2019-01-24T23:55:14.006Z,30.90
2019-01-24T23:57:48.769Z,31.10
